Scarborough, Trinidad and Tobago
Current Conditions -  °F | °C
As of 10:00 AM on Sunday 23 Nov 2014 (Local Time) from TTCP Reporting Station
Light Rain Light Rain  
Wind Chill: 82°   Ceiling: Unl
Heat Index: 91°   Visibility: 5mi
Dew Point: 77°   Wind: 13mph
Humidity: 84%   Direction: 90°E
Pressure: 29.97"   Gusts: NA
Location:  11.18°N, 60.74°W
Report Text: TTCP 231400Z 09011KT 8000 -RA VCSH??FEW010CB SCT015 28/25 Q1015 NOSIGRMK CB SE-SE
Loading
Personal Weather Stations






























Interactive Weather Map New forecast layout! Learn more

10-Day Weather Forecast

Advertisements
Track Severe Weather on mobile